Latest Weather Observations for Mackay Racecourse

IDQ60801

Issued at 8:02 am EST Sunday 25 June 2017 (issued every 30 minutes, with the page automatically refreshed every 10 minutes)

About weather observations | Map of weather stations | Latest weather observations for QLD | Other Formats
Station Details ID: 033329 Name: OORALEA RACECOURSE (MACKAY TURF CLUB) Lat: -21.17 Lon: 149.15 Height: 10.31 m
Data from the previous 72 hours. | See also: Recent months for locations in Queensland
Date/Time
EST
Temp
°C
App
Temp
°C
Dew
Point
°C
Rel
Hum
%
Delta-T
°C
Wind Press
QNH
hPa
Press
MSL
hPa
Rain since
9am
mm
Dir  Spd
km/h
Gust
km/h
Spd
kts
Gust
kts
25/08:00am 13.6 - - - - WSW 9 11 5 6 - - 0.0
25/07:30am 12.2 - - - - WSW 7 11 4 6 - - 0.0
25/07:00am 10.6 - - - - CALM 0 0 0 0 - - 0.0
25/06:30am 10.3 - - - - WSW 2 4 1 2 - - 0.0
25/06:00am 10.2 - - - - WSW 2 4 1 2 - - 0.0
25/05:30am 10.3 - - - - WSW 2 4 1 2 - - 0.0
25/05:00am 10.8 - - - - WSW 6 9 3 5 - - 0.0
25/04:30am 10.7 - - - - WSW 4 6 2 3 - - 0.0
25/04:00am 11.1 - - - - CALM 0 2 0 1 - - 0.0
25/03:30am 11.3 - - - - WSW 4 6 2 3 - - 0.0
25/03:00am 11.7 - - - - WSW 2 6 1 3 - - 0.0
25/02:30am 12.2 - - - - WSW 4 6 2 3 - - 0.0
25/02:00am 13.3 - - - - WSW 9 11 5 6 - - 0.0
25/01:30am 13.4 - - - - E 7 9 4 5 - - 0.0
25/01:00am 12.8 - - - - E 4 9 2 5 - - 0.0
25/12:30am 12.4 - - - - E 2 6 1 3 - - 0.0
25/12:00am 12.6 - - - - E 2 6 1 3 - - 0.0
 
Date/Time
EST
Temp
°C
App
Temp
°C
Dew
Point
°C
Rel
Hum
%
Delta-T
°C
Wind Press
QNH
hPa
Press
MSL
hPa
Rain since
9am
mm
Dir  Spd
km/h
Gust
km/h
Spd
kts
Gust
kts
24/11:30pm 12.6 - - - - E 4 6 2 3 - - 0.0
24/11:00pm 12.9 - - - - E 6 9 3 5 - - 0.0
24/10:30pm 13.2 - - - - E 2 7 1 4 - - 0.0
24/10:00pm 13.6 - - - - E 6 7 3 4 - - 0.0
24/09:30pm 13.2 - - - - E 4 6 2 3 - - 0.0
24/09:00pm 13.9 - - - - E 2 7 1 4 - - 0.0
24/08:30pm 14.5 - - - - E 2 4 1 2 - - 0.0
24/08:00pm 15.2 - - - - E 4 6 2 3 - - 0.0
24/07:30pm 15.3 - - - - CALM 0 6 0 3 - - 0.0
24/07:00pm 18.8 - - - - E 4 7 2 4 - - 0.0
24/06:30pm 19.3 - - - - E 6 7 3 4 - - 0.0
24/06:00pm 19.9 - - - - E 7 11 4 6 - - 0.0
24/05:30pm 20.4 - - - - E 9 13 5 7 - - 0.0
24/05:00pm 21.3 - - - - E 11 17 6 9 - - 0.0
24/04:30pm 22.3 - - - - E 15 20 8 11 - - 0.0
24/04:00pm 22.7 - - - - E 15 20 8 11 - - 0.0
24/03:30pm 23.9 - - - - SSE 6 11 3 6 - - 0.0
24/03:00pm 24.5 - - - - S 7 11 4 6 - - 0.0
24/02:30pm 24.0 - - - - S 13 15 7 8 - - 0.0
24/02:00pm 23.0 - - - - E 17 22 9 12 - - 0.0
24/01:30pm 23.3 - - - - E 17 28 9 15 - - 0.0
24/01:00pm 24.6 - - - - SE 9 19 5 10 - - 0.0
24/12:30pm 24.4 - - - - ESE 11 17 6 9 - - 0.0
24/12:00pm 23.3 - - - - SE 11 17 6 9 - - 0.0
24/11:30am 22.7 - - - - SE 11 15 6 8 - - 0.0
24/11:00am 22.0 - - - - SSE 9 13 5 7 - - 0.0
24/10:30am 21.7 - - - - SSE 4 9 2 5 - - 0.0
24/10:00am 20.3 - - - - SSE 2 6 1 3 - - 0.0
24/09:30am 19.1 - - - - CALM 0 6 0 3 - - 0.0
24/09:00am 18.8 - - - - SSE 2 4 1 2 - - 0.2
24/08:30am 17.4 - - - - SSE 4 7 2 4 - - 0.2
24/08:00am 15.9 - - - - SSE 4 7 2 4 - - 0.2
24/07:30am 14.7 - - - - SSE 4 7 2 4 - - 0.2
24/07:00am 14.0 - - - - SSE 6 7 3 4 - - 0.2
24/06:30am 13.9 - - - - SE 7 9 4 5 - - 0.2
24/06:00am 14.2 - - - - SE 6 7 3 4 - - 0.2
24/05:30am 14.7 - - - - SE 6 7 3 4 - - 0.2
24/05:00am 14.9 - - - - SE 6 7 3 4 - - 0.2
24/04:30am 14.3 - - - - CALM 0 6 0 3 - - 0.2
24/04:00am 14.7 - - - - SE 2 6 1 3 - - 0.2
24/03:30am 14.7 - - - - SE 4 7 2 4 - - 0.2
24/03:00am 15.6 - - - - CALM 0 0 0 0 - - 0.2
24/02:30am 16.6 - - - - SE 4 7 2 4 - - 0.2
24/02:00am 17.4 - - - - SE 2 4 1 2 - - 0.2
24/01:30am 17.4 - - - - SE 6 9 3 5 - - 0.2
24/01:00am 17.0 - - - - CALM 0 6 0 3 - - 0.2
24/12:30am 17.3 - - - - CALM 0 0 0 0 - - 0.2
24/12:00am 17.3 - - - - CALM 0 0 0 0 - - 0.2
 
Date/Time
EST
Temp
°C
App
Temp
°C
Dew
Point
°C
Rel
Hum
%
Delta-T
°C
Wind Press
QNH
hPa
Press
MSL
hPa
Rain since
9am
mm
Dir  Spd
km/h
Gust
km/h
Spd
kts
Gust
kts
23/11:30pm 17.4 - - - - CALM 0 0 0 0 - - 0.2
23/11:00pm 17.3 - - - - CALM 0 0 0 0 - - 0.2
23/10:30pm 17.5 - - - - CALM 0 0 0 0 - - 0.2
23/10:00pm 17.8 - - - - SE 4 6 2 3 - - 0.2
23/09:30pm 18.1 - - - - SE 6 7 3 4 - - 0.2
23/09:00pm 18.9 - - - - SE 6 9 3 5 - - 0.2
23/08:30pm 19.8 - - - - SE 7 11 4 6 - - 0.2
23/08:00pm 20.2 - - - - SE 9 13 5 7 - - 0.2
23/07:30pm 20.3 - - - - SE 7 13 4 7 - - 0.2
23/07:00pm 20.4 - - - - SE 11 15 6 8 - - 0.2
23/06:30pm 20.5 - - - - SE 9 15 5 8 - - 0.2
23/06:00pm 20.7 - - - - SE 7 13 4 7 - - 0.2
23/05:30pm 21.1 - - - - SE 11 17 6 9 - - 0.2
23/05:00pm 21.7 - - - - SE 11 19 6 10 - - 0.2
23/04:30pm 22.1 - - - - SE 13 20 7 11 - - 0.2
23/04:00pm 21.9 - - - - SE 13 19 7 10 - - 0.2
23/03:30pm 22.4 - - - - SE 13 20 7 11 - - 0.2
23/03:00pm 22.6 - - - - SE 13 20 7 11 - - 0.2
23/02:30pm 22.6 - - - - SE 15 20 8 11 - - 0.2
23/02:00pm 22.9 - - - - SSE 13 19 7 10 - - 0.2
23/01:30pm 21.8 - - - - ENE 6 9 3 5 - - 0.2
23/01:00pm 20.8 - - - - E 17 26 9 14 - - 0.2
23/12:30pm 22.1 - - - - SE 11 19 6 10 - - 0.2
23/12:00pm 21.7 - - - - SSE 9 17 5 9 - - 0.2
23/11:30am 20.4 - - - - SSE 11 15 6 8 - - 0.2
23/11:00am 20.3 - - - - SSE 13 19 7 10 - - 0.2
23/10:30am 19.3 - - - - ESE 11 17 6 9 - - 0.0
23/10:00am 20.1 - - - - SSE 11 17 6 9 - - 0.0
23/09:30am 19.5 - - - - SSE 11 19 6 10 - - 0.0
23/09:00am 19.7 - - - - SSE 13 19 7 10 - - 0.0
23/08:30am 19.0 - - - - S 11 17 6 9 - - 0.0
23/08:00am 18.4 - - - - S 13 20 7 11 - - 0.0
23/07:30am 16.2 - - - - S 6 7 3 4 - - 0.0
23/07:00am 14.9 - - - - CALM 0 4 0 2 - - 0.0
23/06:30am 13.7 - - - - S 4 6 2 3 - - 0.0
23/06:00am 13.8 - - - - CALM 0 0 0 0 - - 0.0
23/05:30am 14.4 - - - - S 2 4 1 2 - - 0.0
23/05:00am 14.4 - - - - S 2 4 1 2 - - 0.0
23/04:30am 14.3 - - - - S 4 6 2 3 - - 0.0
23/04:00am 14.1 - - - - S 4 6 2 3 - - 0.0
23/03:30am 13.9 - - - - S 6 7 3 4 - - 0.0
23/03:00am 14.2 - - - - S 6 7 3 4 - - 0.0
23/02:30am 14.7 - - - - CALM 0 6 0 3 - - 0.0
23/02:00am 14.9 - - - - S 4 6 2 3 - - 0.0
23/01:30am 14.8 - - - - S 6 7 3 4 - - 0.0
23/01:00am 14.3 - - - - SE 4 7 2 4 - - 0.0
23/12:30am 14.5 - - - - SE 6 6 3 3 - - 0.0
23/12:00am 13.8 - - - - SE 4 6 2 3 - - 0.0
 
Date/Time
EST
Temp
°C
App
Temp
°C
Dew
Point
°C
Rel
Hum
%
Delta-T
°C
Wind Press
QNH
hPa
Press
MSL
hPa
Rain since
9am
mm
Dir  Spd
km/h
Gust
km/h
Spd
kts
Gust
kts
22/11:30pm 13.4 - - - - SE 4 7 2 4 - - 0.0
22/11:00pm 14.0 - - - - SE 4 6 2 3 - - 0.0
22/10:30pm 13.8 - - - - SE 4 6 2 3 - - 0.0
22/10:00pm 13.1 - - - - SE 4 4 2 2 - - 0.0
22/09:30pm 13.9 - - - - CALM 0 0 0 0 - - 0.0
22/09:00pm 15.6 - - - - SE 2 4 1 2 - - 0.0
22/08:30pm 17.0 - - - - SE 6 7 3 4 - - 0.0
22/08:00pm 17.3 - - - - SE 6 7 3 4 - - 0.0
22/07:30pm 17.4 - - - - SE 6 7 3 4 - - 0.0
22/07:00pm 18.2 - - - - SE 6 11 3 6 - - 0.0
22/06:30pm 18.6 - - - - SE 6 7 3 4 - - 0.0
22/06:00pm 19.2 - - - - SE 7 11 4 6 - - 0.0
22/05:30pm 20.3 - - - - SE 7 13 4 7 - - 0.0
22/05:00pm 21.3 - - - - ESE 11 17 6 9 - - 0.0
22/04:30pm 22.1 - - - - SE 15 24 8 13 - - 0.0
22/04:00pm 22.8 - - - - SE 15 24 8 13 - - 0.0
22/03:30pm 23.0 - - - - SE 17 22 9 12 - - 0.0
22/03:00pm 23.3 - - - - SE 17 24 9 13 - - 0.0
22/02:30pm 23.1 - - - - SE 19 30 10 16 - - 0.0
22/02:00pm 23.8 - - - - SE 20 30 11 16 - - 0.0
22/01:30pm 23.2 - - - - SE 19 30 10 16 - - 0.0
22/01:00pm 23.5 - - - - SE 19 30 10 16 - - 0.0
22/12:30pm 22.9 - - - - SE 24 35 13 19 - - 0.0
22/12:00pm 22.4 - - - - SE 24 33 13 18 - - 0.0
22/11:30am 22.8 - - - - SE 24 37 13 20 - - 0.0
22/11:00am 22.7 - - - - SE 22 32 12 17 - - 0.0
22/10:30am 22.2 - - - - SE 20 28 11 15 - - 0.0
22/10:00am 22.3 - - - - SSE 15 28 8 15 - - 0.0
22/09:30am 20.9 - - - - SSE 15 22 8 12 - - 0.0
22/09:00am 19.7 - - - - S 11 17 6 9 - - 0.0
22/08:30am 17.3 - - - - SSW 6 7 3 4 - - 0.0

Other Formats:

Comma delimited format used in spreadsheet applications
http://www.bom.gov.au/fwo/IDQ60801/IDQ60801.94352.axf

JavaScript Object Notation format (JSON) in row-major order
http://www.bom.gov.au/fwo/IDQ60801/IDQ60801.94352.json